Time;durP1;ratioP1;P1;durP2;ratioP2;P2;SDS_P1;SDS_P2;PMS_P1;PMS_P2;Temp;Humidity;BMP_temperature;BMP_pressure;BME280_temperature;BME280_humidity;BME280_pressure;Samples;Min_cycle;Max_cycle;Signal;HPM_P1;HPM_P2
2023/11/21 00:00:58;;;;;;;21.17;12.77;;;8.50;99.90;;;;;;5014638;28;20228;-68
2023/11/21 00:03:28;;;;;;;20.77;11.30;;;8.50;99.90;;;;;;5011789;28;20200;-67
2023/11/21 00:05:54;;;;;;;23.87;13.70;;;8.50;99.90;;;;;;5016271;28;20200;-67
2023/11/21 00:08:21;;;;;;;20.43;11.90;;;8.50;99.90;;;;;;5002738;28;20441;-67
2023/11/21 00:10:48;;;;;;;22.87;13.10;;;8.40;99.90;;;;;;4987575;28;20471;-68
2023/11/21 00:13:15;;;;;;;19.17;12.80;;;8.40;99.90;;;;;;5008831;28;20206;-68
2023/11/21 00:15:42;;;;;;;18.33;12.83;;;8.30;99.90;;;;;;4983792;28;20445;-68
2023/11/21 00:18:10;;;;;;;21.17;12.53;;;8.20;99.90;;;;;;5014600;28;20547;-68
2023/11/21 00:20:38;;;;;;;24.43;12.97;;;8.20;99.90;;;;;;5005677;28;20220;-68
2023/11/21 00:23:05;;;;;;;19.07;12.40;;;8.20;99.90;;;;;;5004110;28;20618;-69
2023/11/21 00:25:32;;;;;;;23.43;12.87;;;8.00;99.90;;;;;;5010611;28;20197;-68
2023/11/21 00:27:59;;;;;;;22.70;13.13;;;8.10;99.90;;;;;;5006870;28;20200;-68
2023/11/21 00:30:26;;;;;;;19.30;12.27;;;8.10;99.90;;;;;;4969824;28;20224;-68
2023/11/21 00:32:52;;;;;;;16.90;11.30;;;8.00;99.90;;;;;;5018618;28;20211;-68
2023/11/21 00:35:20;;;;;;;18.43;13.13;;;7.90;99.90;;;;;;5014915;28;20226;-68
2023/11/21 00:37:49;;;;;;;18.83;12.43;;;7.90;99.90;;;;;;4986204;28;20714;-68
2023/11/21 00:40:19;;;;;;;21.60;12.60;;;7.90;99.90;;;;;;5012323;28;20213;-68
2023/11/21 00:42:46;;;;;;;21.87;12.77;;;7.90;99.90;;;;;;4985009;28;21009;-68
2023/11/21 00:45:13;;;;;;;18.77;12.20;;;7.90;99.90;;;;;;5013559;28;20537;-68
2023/11/21 00:47:40;;;;;;;21.73;12.03;;;7.90;99.90;;;;;;4995039;28;20628;-68
2023/11/21 00:50:08;;;;;;;18.63;12.60;;;7.90;99.90;;;;;;5016027;28;20660;-69
2023/11/21 00:52:35;;;;;;;23.10;13.20;;;7.80;99.90;;;;;;4988882;28;20200;-68
2023/11/21 00:55:04;;;;;;;20.57;12.57;;;7.80;99.90;;;;;;5000518;28;20741;-68
2023/11/21 00:57:31;;;;;;;20.67;13.50;;;7.70;99.90;;;;;;5001411;28;20196;-68
2023/11/21 00:59:58;;;;;;;19.60;12.93;;;7.70;99.90;;;;;;5008476;28;20686;-68
2023/11/21 01:02:25;;;;;;;20.60;12.73;;;7.70;99.90;;;;;;4991930;28;20224;-68
2023/11/21 01:04:52;;;;;;;23.20;11.30;;;7.70;99.90;;;;;;4995507;28;20302;-68
2023/11/21 01:07:20;;;;;;;18.40;12.10;;;7.70;99.90;;;;;;5009485;28;20204;-69
2023/11/21 01:09:47;;;;;;;19.17;11.03;;;7.70;99.90;;;;;;5009573;28;20223;-69
2023/11/21 01:12:17;;;;;;;15.97;11.40;;;7.70;99.90;;;;;;5016377;28;20204;-68
2023/11/21 01:14:45;;;;;;;12.97;9.13;;;7.70;99.90;;;;;;4991753;28;20201;-68
2023/11/21 01:17:12;;;;;;;17.30;10.37;;;7.60;99.90;;;;;;4999369;28;20188;-67
2023/11/21 01:19:39;;;;;;;14.93;10.43;;;7.60;99.90;;;;;;4988424;28;20764;-68
2023/11/21 01:22:06;;;;;;;12.83;10.40;;;7.60;99.90;;;;;;4997339;28;20270;-68
2023/11/21 01:24:32;;;;;;;15.70;10.57;;;7.60;99.90;;;;;;4985409;28;20204;-68
2023/11/21 01:26:59;;;;;;;15.97;11.37;;;7.60;99.90;;;;;;4992911;28;20258;-68
2023/11/21 01:29:27;;;;;;;20.87;11.90;;;7.60;99.90;;;;;;4993894;28;20356;-68
2023/11/21 01:31:54;;;;;;;15.93;10.50;;;7.60;99.90;;;;;;4988926;28;20308;-68
2023/11/21 01:34:21;;;;;;;20.07;11.40;;;7.60;99.90;;;;;;4971674;28;20207;-68
2023/11/21 01:36:48;;;;;;;15.67;10.30;;;7.60;99.90;;;;;;4995447;28;20259;-68
2023/11/21 01:39:16;;;;;;;15.03;10.00;;;7.50;99.90;;;;;;4989404;28;20196;-68
2023/11/21 01:41:44;;;;;;;16.27;11.27;;;7.50;99.90;;;;;;5008551;28;20240;-68
2023/11/21 01:44:11;;;;;;;17.10;11.13;;;7.50;99.90;;;;;;4996716;28;20310;-68
2023/11/21 01:46:39;;;;;;;17.90;11.13;;;7.50;99.90;;;;;;4985445;28;20435;-69
2023/11/21 01:49:06;;;;;;;14.23;10.00;;;7.50;99.90;;;;;;4978379;28;20270;-68
2023/11/21 01:51:34;;;;;;;13.07;9.90;;;7.50;99.90;;;;;;5000099;28;20208;-68
2023/11/21 01:54:04;;;;;;;13.43;9.97;;;7.40;99.90;;;;;;5005820;28;20327;-68
2023/11/21 01:56:32;;;;;;;16.03;9.77;;;7.40;99.90;;;;;;5009454;28;20291;-68
2023/11/21 01:58:59;;;;;;;14.20;9.03;;;7.50;99.90;;;;;;5006918;28;20455;-68
2023/11/21 02:01:25;;;;;;;15.67;9.60;;;7.40;99.90;;;;;;5011207;28;20875;-68
2023/11/21 02:03:55;;;;;;;15.33;9.07;;;7.30;99.90;;;;;;5008984;28;20671;-68
2023/11/21 02:06:24;;;;;;;12.17;8.40;;;7.30;99.90;;;;;;5015265;28;20216;-68
2023/11/21 02:08:51;;;;;;;10.93;8.03;;;7.40;99.90;;;;;;5004687;28;20228;-68
2023/11/21 02:11:19;;;;;;;13.60;7.57;;;7.30;99.90;;;;;;4992107;28;20216;-68
2023/11/21 02:13:49;;;;;;;12.40;7.83;;;7.30;99.90;;;;;;5003907;28;20212;-68
2023/11/21 02:16:16;;;;;;;12.97;6.67;;;7.30;99.90;;;;;;4998570;28;20199;-68
2023/11/21 02:18:43;;;;;;;8.27;6.53;;;7.30;99.90;;;;;;4974147;28;20216;-68
2023/11/21 02:21:12;;;;;;;9.87;7.37;;;7.30;99.90;;;;;;5006990;28;20266;-68
2023/11/21 02:23:44;;;;;;;8.90;6.73;;;7.30;99.90;;;;;;5003025;28;20568;-68
2023/11/21 02:26:11;;;;;;;10.17;6.33;;;7.30;99.90;;;;;;4994757;28;20196;-68
2023/11/21 02:28:38;;;;;;;8.27;5.93;;;7.30;99.90;;;;;;5010326;28;20687;-68
2023/11/21 02:31:07;;;;;;;6.90;6.20;;;7.30;99.90;;;;;;5006240;28;20256;-68
2023/11/21 02:33:34;;;;;;;8.20;6.20;;;7.30;99.90;;;;;;4993304;28;20719;-68
2023/11/21 02:36:01;;;;;;;7.47;5.77;;;7.20;99.90;;;;;;4998325;28;20215;-68
2023/11/21 02:38:28;;;;;;;10.90;6.13;;;7.20;99.90;;;;;;5000792;28;20341;-68
2023/11/21 02:40:58;;;;;;;7.73;5.13;;;7.20;99.90;;;;;;5005845;28;20311;-68
2023/11/21 02:43:25;;;;;;;6.33;5.00;;;7.20;99.90;;;;;;5007554;28;20419;-68
2023/11/21 02:45:52;;;;;;;8.07;5.57;;;7.20;99.90;;;;;;5004075;28;20255;-68
2023/11/21 02:48:19;;;;;;;6.20;5.60;;;7.10;99.90;;;;;;5010797;28;20206;-68
2023/11/21 02:50:46;;;;;;;9.07;5.00;;;7.10;99.90;;;;;;5003791;28;20462;-68
2023/11/21 02:53:14;;;;;;;9.53;5.70;;;7.10;99.90;;;;;;4994342;28;20630;-68
2023/11/21 02:55:42;;;;;;;8.87;5.60;;;7.10;99.90;;;;;;5023392;28;20188;-69
2023/11/21 02:58:10;;;;;;;8.20;6.20;;;7.10;99.90;;;;;;5019332;28;20207;-68
2023/11/21 03:00:38;;;;;;;6.77;6.00;;;7.10;99.90;;;;;;5016865;28;20544;-68
2023/11/21 03:03:06;;;;;;;9.13;6.13;;;7.10;99.90;;;;;;5004726;28;20224;-68
2023/11/21 03:05:35;;;;;;;7.43;5.60;;;7.10;99.90;;;;;;4971435;28;20337;-68
2023/11/21 03:08:02;;;;;;;8.53;6.33;;;7.00;99.90;;;;;;5022333;28;20286;-68
2023/11/21 03:10:29;;;;;;;6.97;6.23;;;7.00;99.90;;;;;;5017078;28;20481;-68
2023/11/21 03:12:57;;;;;;;8.00;6.30;;;7.00;99.90;;;;;;5018280;28;20231;-68
2023/11/21 03:15:25;;;;;;;10.80;6.67;;;7.00;99.90;;;;;;5009813;28;20206;-68
2023/11/21 03:17:52;;;;;;;9.23;6.20;;;6.90;99.90;;;;;;5019301;28;20229;-68
2023/11/21 03:20:19;;;;;;;7.77;6.50;;;7.00;99.90;;;;;;4976401;28;20217;-68
2023/11/21 03:22:45;;;;;;;9.37;6.77;;;6.90;99.90;;;;;;5022983;28;20219;-68
2023/11/21 03:25:12;;;;;;;8.70;6.37;;;6.90;99.90;;;;;;5001603;28;20207;-67
2023/11/21 03:27:39;;;;;;;8.60;6.23;;;6.90;99.90;;;;;;5023887;28;20196;-68
2023/11/21 03:30:10;;;;;;;7.67;6.90;;;6.90;99.90;;;;;;5014430;28;20571;-68
2023/11/21 03:32:38;;;;;;;8.23;7.07;;;6.90;99.90;;;;;;5003193;28;20226;-69
2023/11/21 03:35:06;;;;;;;10.70;6.97;;;6.90;99.90;;;;;;5021715;28;20905;-67
2023/11/21 03:37:33;;;;;;;10.40;6.77;;;6.90;99.90;;;;;;4990235;28;20320;-69
2023/11/21 03:40:00;;;;;;;8.60;7.10;;;6.80;99.90;;;;;;5006965;28;20662;-69
2023/11/21 03:42:26;;;;;;;12.43;7.03;;;6.90;99.90;;;;;;4997114;28;20330;-68
2023/11/21 03:44:53;;;;;;;10.73;7.17;;;6.90;99.90;;;;;;5018059;28;20204;-68
2023/11/21 03:47:21;;;;;;;11.87;7.23;;;6.90;99.90;;;;;;5005702;28;20193;-66
2023/11/21 03:49:49;;;;;;;9.57;7.03;;;6.90;99.90;;;;;;5019746;28;20227;-69
2023/11/21 03:52:16;;;;;;;9.53;7.23;;;6.90;99.90;;;;;;4977080;28;20359;-67
2023/11/21 03:54:43;;;;;;;9.90;6.83;;;6.90;99.90;;;;;;5002628;28;20196;-69
2023/11/21 03:57:10;;;;;;;12.93;7.67;;;6.90;99.90;;;;;;5019588;28;20208;-66
2023/11/21 03:59:40;;;;;;;11.40;7.27;;;7.00;99.90;;;;;;5005942;28;20212;-68
2023/11/21 04:02:07;;;;;;;11.60;7.07;;;6.90;99.90;;;;;;5012716;28;20245;-67
2023/11/21 04:04:34;;;;;;;9.73;7.20;;;7.00;99.90;;;;;;5019335;28;20266;-68
2023/11/21 04:07:02;;;;;;;9.80;7.33;;;6.90;99.90;;;;;;5003648;28;20211;-68
2023/11/21 04:09:29;;;;;;;11.43;7.93;;;6.90;99.90;;;;;;5020065;28;20439;-69
2023/11/21 04:11:56;;;;;;;9.23;7.13;;;6.90;99.90;;;;;;5022793;28;20200;-68
2023/11/21 04:14:23;;;;;;;9.23;6.77;;;6.90;99.90;;;;;;5017936;28;20432;-68
2023/11/21 04:16:50;;;;;;;8.47;7.07;;;6.90;99.90;;;;;;5014762;28;20692;-69
2023/11/21 04:19:17;;;;;;;8.20;6.70;;;6.90;99.90;;;;;;5013891;28;20203;-67
2023/11/21 04:21:44;;;;;;;9.93;7.53;;;6.90;99.90;;;;;;5019545;28;20243;-69
2023/11/21 04:24:12;;;;;;;10.50;7.10;;;6.90;99.90;;;;;;4999815;28;20282;-67
2023/11/21 04:26:39;;;;;;;8.63;6.80;;;6.90;99.90;;;;;;5016843;28;20402;-67
2023/11/21 04:29:05;;;;;;;9.30;7.17;;;6.90;99.90;;;;;;5015321;28;20495;-68
2023/11/21 04:31:32;;;;;;;7.40;6.13;;;6.90;99.90;;;;;;5017502;28;20270;-67
2023/11/21 04:33:59;;;;;;;9.13;7.07;;;6.90;99.90;;;;;;5015709;28;20863;-69
2023/11/21 04:36:26;;;;;;;12.00;6.70;;;6.90;99.90;;;;;;5020027;28;20192;-69
2023/11/21 04:38:53;;;;;;;8.80;6.83;;;6.90;99.90;;;;;;4996830;28;20875;-69
2023/11/21 04:41:21;;;;;;;8.50;6.50;;;6.90;99.90;;;;;;5016433;28;20274;-69
2023/11/21 04:43:49;;;;;;;7.40;6.57;;;6.90;99.90;;;;;;5005573;28;20894;-69
2023/11/21 04:46:16;;;;;;;8.37;6.97;;;6.90;99.90;;;;;;5009930;28;20631;-68
2023/11/21 04:48:43;;;;;;;7.37;5.73;;;6.90;99.90;;;;;;4997148;28;20376;-69
2023/11/21 04:51:11;;;;;;;7.87;6.10;;;6.90;99.90;;;;;;5016103;28;20313;-68
2023/11/21 04:53:39;;;;;;;7.73;6.80;;;6.90;99.90;;;;;;4972399;28;20208;-69
2023/11/21 04:56:06;;;;;;;8.70;6.57;;;6.90;99.90;;;;;;5012724;28;20196;-68
2023/11/21 04:58:35;;;;;;;9.67;6.73;;;6.90;99.90;;;;;;5013815;28;20672;-68
2023/11/21 05:01:02;;;;;;;10.20;6.60;;;6.90;99.90;;;;;;5012600;28;20316;-69
2023/11/21 05:03:29;;;;;;;8.47;6.30;;;6.90;99.90;;;;;;5002487;28;20223;-67
2023/11/21 05:05:56;;;;;;;7.60;6.00;;;6.80;99.90;;;;;;5016161;28;20287;-69
2023/11/21 05:08:25;;;;;;;9.27;6.50;;;6.90;99.90;;;;;;5011387;28;20635;-67
2023/11/21 05:10:53;;;;;;;7.80;5.93;;;6.80;99.90;;;;;;4987802;28;20298;-68
2023/11/21 05:13:20;;;;;;;9.70;7.20;;;6.90;99.90;;;;;;5022778;28;20184;-69
2023/11/21 05:15:48;;;;;;;8.10;7.30;;;6.80;99.90;;;;;;5011380;28;20212;-67
2023/11/21 05:18:15;;;;;;;9.87;6.93;;;6.90;99.90;;;;;;5010628;28;20615;-69
2023/11/21 05:20:42;;;;;;;9.10;5.90;;;6.90;99.90;;;;;;5011386;28;20289;-68
2023/11/21 05:23:09;;;;;;;9.03;6.83;;;6.90;99.90;;;;;;5015439;28;20604;-69
2023/11/21 05:25:36;;;;;;;7.83;6.33;;;6.90;99.90;;;;;;4997081;28;20201;-67
2023/11/21 05:28:03;;;;;;;9.57;6.23;;;6.90;99.90;;;;;;5010307;28;20276;-68
2023/11/21 05:30:30;;;;;;;8.00;5.97;;;6.90;99.90;;;;;;5009758;28;20452;-68
2023/11/21 05:32:58;;;;;;;9.57;6.67;;;6.90;99.90;;;;;;5015456;28;20894;-68
2023/11/21 05:35:26;;;;;;;7.77;6.80;;;6.90;99.90;;;;;;5011598;28;20208;-69
2023/11/21 05:37:53;;;;;;;9.83;6.50;;;6.90;99.90;;;;;;5009752;28;20208;-69
2023/11/21 05:40:22;;;;;;;8.07;6.40;;;6.90;99.90;;;;;;4998022;28;20224;-69
2023/11/21 05:42:49;;;;;;;9.17;6.90;;;6.90;99.90;;;;;;5006964;28;20217;-67
2023/11/21 05:45:16;;;;;;;9.40;6.40;;;6.90;99.90;;;;;;5010199;28;20196;-69
2023/11/21 05:47:45;;;;;;;9.17;6.87;;;6.90;99.90;;;;;;5019259;28;20283;-67
2023/11/21 05:50:15;;;;;;;11.43;6.30;;;6.90;99.90;;;;;;5010901;28;20225;-68
2023/11/21 05:52:43;;;;;;;8.10;5.87;;;6.90;99.90;;;;;;5019498;28;20283;-67
2023/11/21 05:55:10;;;;;;;10.03;6.63;;;6.90;99.90;;;;;;4992581;28;20730;-69
2023/11/21 05:57:38;;;;;;;9.40;6.67;;;6.90;99.90;;;;;;5016840;28;20200;-67
2023/11/21 06:00:11;;;;;;;8.60;6.10;;;6.80;99.90;;;;;;4991621;28;20618;-68
2023/11/21 06:02:39;;;;;;;10.17;6.77;;;6.80;99.90;;;;;;4999018;28;20204;-67
2023/11/21 06:05:06;;;;;;;8.40;6.23;;;6.80;99.90;;;;;;5018641;28;20406;-66
2023/11/21 06:07:35;;;;;;;7.90;6.17;;;6.80;99.90;;;;;;5010158;28;20231;-69
2023/11/21 06:10:05;;;;;;;6.97;6.07;;;6.70;99.90;;;;;;4987207;28;20239;-68
2023/11/21 06:12:35;;;;;;;8.03;6.73;;;6.80;99.90;;;;;;5009157;28;22702;-68
2023/11/21 06:15:04;;;;;;;7.20;6.27;;;6.80;99.90;;;;;;5021361;28;21070;-68
2023/11/21 06:17:30;;;;;;;9.23;7.07;;;6.80;99.90;;;;;;5006084;28;20223;-68
2023/11/21 06:19:57;;;;;;;8.47;6.60;;;6.80;99.90;;;;;;5018082;28;20299;-68
2023/11/21 06:22:24;;;;;;;7.93;6.53;;;6.80;99.90;;;;;;5011252;28;20505;-68
2023/11/21 06:24:52;;;;;;;7.17;5.70;;;6.80;99.90;;;;;;4999932;28;20219;-68
2023/11/21 06:27:19;;;;;;;8.07;6.17;;;6.80;99.90;;;;;;5010736;28;20200;-67
2023/11/21 06:29:46;;;;;;;7.57;6.50;;;6.80;99.90;;;;;;5017103;28;20243;-68
2023/11/21 06:32:16;;;;;;;7.93;6.23;;;6.80;99.90;;;;;;5004705;28;20701;-66
2023/11/21 06:34:43;;;;;;;8.30;6.40;;;6.80;99.90;;;;;;5013440;28;20680;-68
2023/11/21 06:37:11;;;;;;;10.33;6.50;;;6.80;99.90;;;;;;5010462;28;20199;-67
2023/11/21 06:39:38;;;;;;;7.10;6.30;;;6.80;99.90;;;;;;5016142;28;20541;-68
2023/11/21 06:42:07;;;;;;;8.83;6.73;;;6.80;99.90;;;;;;4997696;28;20212;-67
2023/11/21 06:44:35;;;;;;;8.20;6.10;;;6.90;99.90;;;;;;5014634;28;20402;-69
2023/11/21 06:47:02;;;;;;;10.90;6.80;;;6.90;99.90;;;;;;5006276;28;20207;-68
2023/11/21 06:49:29;;;;;;;8.07;6.27;;;6.90;99.90;;;;;;5000648;28;20396;-69
2023/11/21 06:51:56;;;;;;;8.63;6.60;;;6.90;99.90;;;;;;4987250;28;20637;-67
2023/11/21 06:54:23;;;;;;;8.33;6.40;;;6.90;99.90;;;;;;5014866;28;20203;-69
2023/11/21 06:56:49;;;;;;;8.23;6.40;;;6.90;99.90;;;;;;4997136;28;20204;-67
2023/11/21 06:59:18;;;;;;;8.03;7.00;;;6.90;99.90;;;;;;5015473;28;20212;-69
2023/11/21 07:01:45;;;;;;;10.60;6.50;;;6.90;99.90;;;;;;5017503;28;20279;-67
2023/11/21 07:04:11;;;;;;;7.10;5.83;;;6.80;99.90;;;;;;5012259;28;20220;-68
2023/11/21 07:06:38;;;;;;;6.87;5.83;;;6.80;99.90;;;;;;5018535;28;20203;-68
2023/11/21 07:09:05;;;;;;;8.10;6.03;;;6.80;99.90;;;;;;5006240;28;20512;-68
2023/11/21 07:11:32;;;;;;;7.93;6.07;;;6.80;99.90;;;;;;4993877;28;20224;-68
2023/11/21 07:13:59;;;;;;;9.23;5.63;;;6.80;99.90;;;;;;5003692;28;20227;-67
2023/11/21 07:16:27;;;;;;;7.77;6.57;;;6.80;99.90;;;;;;5011576;28;20196;-67
2023/11/21 07:18:54;;;;;;;6.70;5.97;;;6.70;99.90;;;;;;4993502;28;20204;-68
2023/11/21 07:21:21;;;;;;;9.47;5.93;;;6.70;99.90;;;;;;5013085;28;20258;-67
2023/11/21 07:23:50;;;;;;;8.33;5.63;;;6.80;99.90;;;;;;5005081;28;20240;-68
2023/11/21 07:26:17;;;;;;;8.77;6.23;;;6.70;99.90;;;;;;5006614;28;20250;-66
2023/11/21 07:28:44;;;;;;;6.10;5.50;;;6.70;99.90;;;;;;5000589;28;20204;-67
2023/11/21 07:31:12;;;;;;;6.57;5.60;;;6.70;99.90;;;;;;5017260;28;20223;-68
2023/11/21 07:33:43;;;;;;;7.67;5.53;;;6.70;99.90;;;;;;5002111;28;20193;-67
2023/11/21 07:36:11;;;;;;;6.20;5.53;;;6.70;99.90;;;;;;5018175;28;20200;-68
2023/11/21 07:38:37;;;;;;;6.50;5.80;;;6.70;99.90;;;;;;5004248;28;20247;-67
2023/11/21 07:41:07;;;;;;;6.07;5.47;;;6.80;99.90;;;;;;5017752;28;20297;-68
2023/11/21 07:43:36;;;;;;;10.10;6.43;;;6.80;99.90;;;;;;4999278;28;20219;-66
2023/11/21 07:46:03;;;;;;;8.87;5.57;;;6.80;99.90;;;;;;5010702;28;20220;-68
2023/11/21 07:48:31;;;;;;;13.20;6.77;;;6.80;99.90;;;;;;5008404;28;20729;-67
2023/11/21 07:51:00;;;;;;;8.00;6.93;;;6.80;99.90;;;;;;5010952;28;20640;-66
2023/11/21 07:53:30;;;;;;;9.77;5.83;;;6.80;99.90;;;;;;5011412;28;20279;-68
2023/11/21 07:55:57;;;;;;;8.40;5.93;;;6.90;99.90;;;;;;5009507;28;20197;-67
2023/11/21 07:58:24;;;;;;;7.53;6.37;;;6.90;99.90;;;;;;4989915;28;20240;-66
2023/11/21 08:00:51;;;;;;;9.30;6.77;;;6.90;99.90;;;;;;5015487;28;20663;-71
2023/11/21 08:03:18;;;;;;;8.67;6.53;;;6.90;99.90;;;;;;5012082;28;20675;-73
2023/11/21 08:05:45;;;;;;;6.67;5.97;;;6.90;99.90;;;;;;5012779;28;20271;-71
2023/11/21 08:08:15;;;;;;;6.33;5.60;;;6.80;99.90;;;;;;5008865;28;20204;-73
2023/11/21 08:10:42;;;;;;;9.10;6.20;;;6.90;99.90;;;;;;5009493;28;20227;-71
2023/11/21 08:13:14;;;;;;;7.07;5.77;;;6.90;99.90;;;;;;5004531;28;20811;-72
2023/11/21 08:15:58;;;;;;;7.27;5.50;;;6.90;99.90;;;;;;5008577;28;20204;-69
2023/11/21 08:18:25;;;;;;;9.70;5.53;;;6.90;99.90;;;;;;5002885;28;20204;-72
2023/11/21 08:20:52;;;;;;;7.13;5.73;;;6.90;99.90;;;;;;5004433;28;20655;-72
2023/11/21 08:23:20;;;;;;;6.57;5.10;;;6.90;99.90;;;;;;5018677;28;20192;-72
2023/11/21 08:25:47;;;;;;;7.40;5.63;;;6.90;99.90;;;;;;5000395;28;20279;-75
2023/11/21 08:28:16;;;;;;;7.60;5.37;;;6.90;99.90;;;;;;4989206;28;20248;-72
2023/11/21 08:30:44;;;;;;;6.23;4.80;;;6.90;99.90;;;;;;4992533;28;20241;-74
2023/11/21 08:33:11;;;;;;;6.93;5.37;;;7.00;99.90;;;;;;5018740;28;20770;-73
2023/11/21 08:35:39;;;;;;;7.77;5.37;;;7.00;99.90;;;;;;5002224;28;20728;-74
2023/11/21 08:38:06;;;;;;;9.03;5.57;;;7.00;99.90;;;;;;5014758;28;20230;-72
2023/11/21 08:40:35;;;;;;;7.43;4.93;;;7.00;99.90;;;;;;5014144;28;20243;-73
2023/11/21 08:43:04;;;;;;;5.77;5.00;;;7.00;99.90;;;;;;4986560;28;20502;-72
2023/11/21 08:45:34;;;;;;;4.73;3.80;;;7.10;99.90;;;;;;5015714;28;20223;-72
2023/11/21 08:48:01;;;;;;;3.30;2.97;;;7.10;99.90;;;;;;5012471;28;20778;-72
2023/11/21 08:50:28;;;;;;;2.90;2.70;;;6.90;99.90;;;;;;5010540;28;20570;-72
2023/11/21 08:52:55;;;;;;;3.97;2.80;;;6.90;99.90;;;;;;5015195;28;20748;-75
2023/11/21 08:55:22;;;;;;;4.20;2.63;;;6.90;99.90;;;;;;5013258;28;20204;-72
2023/11/21 08:57:51;;;;;;;3.70;2.80;;;6.90;99.90;;;;;;5013953;28;20246;-74
2023/11/21 09:00:18;;;;;;;2.60;2.40;;;6.90;99.90;;;;;;5004393;28;20227;-73
2023/11/21 09:02:46;;;;;;;2.57;2.37;;;6.80;99.90;;;;;;5010765;28;20239;-72
2023/11/21 09:05:14;;;;;;;2.40;2.20;;;6.80;99.90;;;;;;5011951;28;20571;-74
2023/11/21 09:07:42;;;;;;;2.60;2.20;;;6.80;99.90;;;;;;5002973;28;20208;-72
2023/11/21 09:10:10;;;;;;;3.03;2.33;;;6.80;99.90;;;;;;5014054;28;20219;-74
2023/11/21 09:12:38;;;;;;;3.97;2.23;;;6.80;99.90;;;;;;4998154;28;20613;-74
2023/11/21 09:15:09;;;;;;;3.70;2.90;;;6.80;99.90;;;;;;5005418;28;20375;-72
2023/11/21 09:17:36;;;;;;;5.73;2.23;;;6.80;99.90;;;;;;5019273;28;20196;-74
2023/11/21 09:20:05;;;;;;;2.77;2.57;;;6.80;99.90;;;;;;5025932;28;20619;-72
2023/11/21 09:22:32;;;;;;;3.13;2.43;;;6.80;99.90;;;;;;5011490;28;20211;-74
2023/11/21 09:24:59;;;;;;;4.77;2.50;;;6.90;99.90;;;;;;5018891;28;20465;-73
2023/11/21 09:27:28;;;;;;;5.00;2.70;;;6.90;99.90;;;;;;5020009;28;20204;-75
2023/11/21 09:29:55;;;;;;;2.67;2.47;;;6.90;99.90;;;;;;4977055;28;20274;-73
2023/11/21 09:32:24;;;;;;;4.33;2.90;;;6.90;99.90;;;;;;5007530;28;20262;-72
2023/11/21 09:34:51;;;;;;;2.93;2.70;;;6.90;99.90;;;;;;5021977;28;20192;-72
2023/11/21 09:37:18;;;;;;;4.27;2.80;;;6.90;99.90;;;;;;5023030;28;20538;-72
2023/11/21 09:39:47;;;;;;;4.07;3.27;;;6.90;99.90;;;;;;5013457;28;20252;-70
2023/11/21 09:42:21;;;;;;;4.77;3.43;;;6.90;99.90;;;;;;5017147;28;20212;-72
2023/11/21 09:44:55;;;;;;;3.17;2.97;;;6.80;99.90;;;;;;5018605;28;20373;-73
2023/11/21 09:47:24;;;;;;;3.70;3.40;;;6.80;99.90;;;;;;5004468;28;20203;-76
2023/11/21 09:49:55;;;;;;;4.30;3.00;;;6.80;99.90;;;;;;4993619;28;20655;-72
2023/11/21 09:52:26;;;;;;;4.67;3.40;;;6.80;99.90;;;;;;5009373;28;20207;-75
2023/11/21 09:54:54;;;;;;;3.80;2.73;;;6.80;99.90;;;;;;5015809;28;20723;-73
2023/11/21 09:57:22;;;;;;;2.73;2.53;;;6.80;99.90;;;;;;5013731;28;20603;-74
2023/11/21 09:59:52;;;;;;;3.53;2.47;;;6.80;99.90;;;;;;5012868;28;20211;-72
2023/11/21 10:02:28;;;;;;;5.10;3.00;;;6.80;99.90;;;;;;4987163;28;20293;-71
2023/11/21 10:04:59;;;;;;;4.77;2.70;;;6.80;99.90;;;;;;5004030;28;20499;-74
2023/11/21 10:07:32;;;;;;;2.30;2.10;;;6.80;99.90;;;;;;5013082;28;20204;-76
2023/11/21 10:10:01;;;;;;;2.50;2.27;;;6.80;99.90;;;;;;5019074;28;20213;-71
2023/11/21 10:12:30;;;;;;;3.87;2.27;;;6.80;99.90;;;;;;5016970;28;20200;-77
2023/11/21 10:15:00;;;;;;;2.80;2.17;;;6.90;99.90;;;;;;5019153;28;20290;-72
2023/11/21 10:17:31;;;;;;;3.33;2.33;;;7.00;99.90;;;;;;5002569;28;20207;-76
2023/11/21 10:19:59;;;;;;;3.77;2.53;;;7.00;99.90;;;;;;5003468;28;20447;-72
2023/11/21 10:22:29;;;;;;;2.10;2.00;;;6.90;99.90;;;;;;5014423;28;20201;-76
2023/11/21 10:24:56;;;;;;;2.83;2.27;;;6.90;99.90;;;;;;5018901;28;20223;-75
2023/11/21 10:27:24;;;;;;;4.00;2.13;;;7.00;99.90;;;;;;5020784;28;20211;-77
2023/11/21 10:29:52;;;;;;;3.47;2.33;;;6.90;99.90;;;;;;5023118;28;20233;-72
2023/11/21 10:32:20;;;;;;;3.57;2.20;;;6.90;99.90;;;;;;5021271;28;20206;-72
2023/11/21 10:34:59;;;;;;;2.03;1.70;;;6.90;99.90;;;;;;5005107;28;20695;-72
2023/11/21 10:37:27;;;;;;;2.40;1.80;;;6.90;99.90;;;;;;5011663;28;20236;-75
2023/11/21 10:40:01;;;;;;;2.67;2.17;;;6.90;99.90;;;;;;5003305;28;20664;-71
2023/11/21 10:42:28;;;;;;;2.00;1.90;;;6.80;99.90;;;;;;5017960;28;20208;-75
2023/11/21 10:44:56;;;;;;;2.23;2.00;;;6.90;99.90;;;;;;5017116;28;20421;-72
2023/11/21 10:47:24;;;;;;;2.43;2.23;;;6.80;99.90;;;;;;5012515;28;20192;-74
2023/11/21 10:49:52;;;;;;;2.27;2.17;;;6.80;99.90;;;;;;5007085;28;20620;-70
2023/11/21 10:52:22;;;;;;;3.30;2.33;;;6.90;99.90;;;;;;5017651;28;20715;-71
2023/11/21 10:54:49;;;;;;;2.70;2.20;;;6.80;99.90;;;;;;5011961;28;20228;-71
2023/11/21 10:57:19;;;;;;;2.60;2.40;;;6.80;99.90;;;;;;5031403;28;20269;-72
2023/11/21 10:59:49;;;;;;;2.70;2.50;;;6.80;99.90;;;;;;5006935;28;21477;-71
2023/11/21 11:02:24;;;;;;;4.00;2.63;;;6.80;99.90;;;;;;5009532;28;20200;-71
2023/11/21 11:04:53;;;;;;;3.43;2.73;;;6.70;99.90;;;;;;5000844;28;20212;-72
2023/11/21 11:07:22;;;;;;;2.40;2.03;;;6.80;99.90;;;;;;5016459;28;20253;-76
2023/11/21 11:09:50;;;;;;;2.30;2.10;;;6.80;99.90;;;;;;5021685;28;20976;-71
2023/11/21 11:12:18;;;;;;;2.60;2.40;;;6.70;99.90;;;;;;5014183;28;20207;-75
2023/11/21 11:14:45;;;;;;;2.33;2.13;;;6.80;99.90;;;;;;5019401;28;20380;-71
2023/11/21 11:17:14;;;;;;;2.43;2.23;;;6.70;99.90;;;;;;5009230;28;20211;-75
2023/11/21 11:19:41;;;;;;;2.43;2.23;;;6.70;99.90;;;;;;4982862;28;20216;-75
2023/11/21 11:22:20;;;;;;;3.17;2.53;;;6.80;99.90;;;;;;5018418;28;20421;-72
2023/11/21 11:25:13;;;;;;;2.60;2.40;;;6.80;99.90;;;;;;5009327;28;20247;-76
2023/11/21 11:27:49;;;;;;;3.60;3.30;;;6.80;99.90;;;;;;5010090;28;20305;-75
2023/11/21 11:30:38;;;;;;;2.33;2.13;;;6.70;99.90;;;;;;5019023;28;20277;-70
2023/11/21 11:33:11;;;;;;;3.10;2.60;;;6.80;99.90;;;;;;5005073;28;20705;-70
2023/11/21 11:35:47;;;;;;;4.33;3.20;;;6.80;99.90;;;;;;4997166;28;20196;-71
2023/11/21 11:38:14;;;;;;;2.53;2.33;;;6.70;99.90;;;;;;5019818;28;20223;-71
2023/11/21 11:40:46;;;;;;;3.03;2.73;;;6.70;99.90;;;;;;5020023;28;20243;-74
2023/11/21 11:43:13;;;;;;;2.37;2.17;;;6.70;99.90;;;;;;5017620;28;20389;-70
2023/11/21 11:45:42;;;;;;;4.80;2.40;;;6.80;99.90;;;;;;5017075;28;20221;-72
2023/11/21 11:48:14;;;;;;;2.73;2.53;;;6.90;99.90;;;;;;5012148;28;20468;-71
2023/11/21 11:51:03;;;;;;;3.03;2.13;;;6.90;99.90;;;;;;5014663;28;20302;-73
2023/11/21 11:53:36;;;;;;;3.87;2.50;;;6.90;99.90;;;;;;5023789;28;20189;-71
2023/11/21 11:56:26;;;;;;;2.10;2.00;;;6.80;99.90;;;;;;5008281;28;20317;-71
2023/11/21 11:58:55;;;;;;;2.73;2.43;;;6.80;99.90;;;;;;5019999;28;20188;-74
2023/11/21 12:01:24;;;;;;;3.60;2.77;;;6.80;99.90;;;;;;5008561;28;20243;-71
2023/11/21 12:04:30;;;;;;;4.70;2.40;;;6.80;99.90;;;;;;5006264;28;20326;-75
2023/11/21 12:07:02;;;;;;;3.03;2.00;;;6.70;99.90;;;;;;4995502;28;20208;-74
2023/11/21 12:09:31;;;;;;;3.80;2.20;;;6.50;99.90;;;;;;5014722;28;20203;-71
2023/11/21 12:12:00;;;;;;;3.47;2.10;;;6.50;99.90;;;;;;5001500;28;20204;-74
2023/11/21 12:14:27;;;;;;;3.73;2.63;;;6.50;99.90;;;;;;5022634;28;20235;-70
2023/11/21 12:16:54;;;;;;;3.30;2.20;;;6.50;99.90;;;;;;5009594;28;20668;-74
2023/11/21 12:19:22;;;;;;;2.33;2.13;;;6.40;99.90;;;;;;5017835;28;20192;-71
2023/11/21 12:21:50;;;;;;;2.97;2.57;;;6.40;99.90;;;;;;4995073;28;20213;-72
2023/11/21 12:24:17;;;;;;;2.37;2.17;;;6.40;99.90;;;;;;5016426;28;20425;-71
2023/11/21 12:26:45;;;;;;;3.93;2.30;;;6.40;99.90;;;;;;4981492;28;21259;-71
2023/11/21 12:29:13;;;;;;;3.07;2.77;;;6.40;99.90;;;;;;5013502;28;20231;-72
2023/11/21 12:31:41;;;;;;;2.60;2.40;;;6.40;99.90;;;;;;5008572;28;20385;-71
2023/11/21 12:34:11;;;;;;;3.20;2.87;;;6.30;99.90;;;;;;5021133;28;20195;-71
2023/11/21 12:36:38;;;;;;;2.83;2.47;;;6.30;99.90;;;;;;4995589;28;21038;-71
2023/11/21 12:39:05;;;;;;;2.83;2.50;;;6.40;99.90;;;;;;5016240;28;20192;-71
2023/11/21 12:41:32;;;;;;;4.53;2.40;;;6.40;99.90;;;;;;5014822;28;20219;-71
2023/11/21 12:43:59;;;;;;;2.73;2.53;;;6.30;99.90;;;;;;5016392;28;20564;-71
2023/11/21 12:46:30;;;;;;;2.33;2.13;;;6.30;99.90;;;;;;5020429;28;20220;-72
2023/11/21 12:48:57;;;;;;;2.30;2.07;;;6.30;99.90;;;;;;5014777;28;20200;-71
2023/11/21 12:51:24;;;;;;;2.33;2.10;;;6.20;99.90;;;;;;4996949;28;20265;-72
2023/11/21 12:53:52;;;;;;;2.50;2.13;;;6.20;99.90;;;;;;5018871;28;20300;-71
2023/11/21 12:56:23;;;;;;;2.50;2.27;;;6.20;99.90;;;;;;5017758;28;20626;-70
2023/11/21 12:58:51;;;;;;;4.03;2.60;;;6.30;99.90;;;;;;5000923;28;20326;-69